createdAt,value
2022-08-21T00:05:11.707Z,7.1
2022-08-21T00:11:05.368Z,7.2
2022-08-21T00:17:03.134Z,6.8
2022-08-21T00:22:54.352Z,6.9
2022-08-21T00:28:49.769Z,6.1
2022-08-21T00:34:41.375Z,5.9
2022-08-21T00:40:33.437Z,5.8
2022-08-21T00:46:29.809Z,5.3
2022-08-21T00:52:22.898Z,5.8
2022-08-21T00:58:18.873Z,5.3
2022-08-21T01:04:10.806Z,5.2
2022-08-21T01:10:04.012Z,6
2022-08-21T01:15:56.420Z,5.5
2022-08-21T01:21:51.776Z,5.8
2022-08-21T01:27:43.409Z,5.7
2022-08-21T01:33:37.558Z,5.7
2022-08-21T01:39:30.706Z,6.3
2022-08-21T01:45:21.851Z,6.1
2022-08-21T01:51:14.193Z,5.8
2022-08-21T01:57:04.951Z,6.3
2022-08-21T02:02:58.867Z,6.5
2022-08-21T02:08:51.217Z,6.1
2022-08-21T02:14:44.527Z,6.2
2022-08-21T02:20:35.034Z,5.9
2022-08-21T02:26:27.382Z,6.1
2022-08-21T02:32:20.593Z,6.7
2022-08-21T02:38:17.774Z,7.1
2022-08-21T02:44:08.667Z,6.3
2022-08-21T02:50:00.061Z,6.1
2022-08-21T02:55:52.256Z,6.3
2022-08-21T03:01:43.738Z,6.3
2022-08-21T03:07:35.178Z,6.3
2022-08-21T03:13:25.959Z,6.7
2022-08-21T03:19:17.060Z,6.9
2022-08-21T03:25:16.998Z,6.4
2022-08-21T03:31:08.277Z,6.5
2022-08-21T03:37:00.470Z,6.4
2022-08-21T03:42:51.142Z,6.4
2022-08-21T03:48:41.946Z,6.5
2022-08-21T03:54:35.135Z,6.9
2022-08-21T04:00:26.319Z,7.2
2022-08-21T04:06:18.557Z,6.6
2022-08-21T04:12:12.104Z,7.5
2022-08-21T04:18:04.873Z,7
2022-08-21T04:23:55.535Z,6.7
2022-08-21T04:29:47.865Z,7.5
2022-08-21T04:35:39.877Z,7.3
2022-08-21T04:55:54.493Z,7.6
2022-08-21T05:09:19.548Z,7.7
2022-08-21T05:56:05.020Z,8.1
2022-08-21T06:02:03.604Z,8.1
2022-08-21T06:08:08.531Z,7
2022-08-21T06:14:10.446Z,6.7
2022-08-21T06:20:10.202Z,7.1
2022-08-21T06:26:06.158Z,7.7
2022-08-21T06:32:13.190Z,7.9
2022-08-21T06:38:10.752Z,8.5
2022-08-21T06:44:17.784Z,7.9
2022-08-21T06:57:19.354Z,8.8
2022-08-21T07:03:25.700Z,9.1
2022-08-21T07:09:50.857Z,8.7
2022-08-21T07:16:03.276Z,9.1
2022-08-21T07:21:57.807Z,10
2022-08-21T07:27:56.772Z,9.2
2022-08-21T07:40:21.897Z,8.9
2022-08-21T07:46:16.131Z,8.9
2022-08-21T07:52:36.461Z,8.1
2022-08-21T08:11:38.418Z,8.3
2022-08-21T08:17:43.947Z,8.3
2022-08-21T08:23:44.930Z,7.7
2022-08-21T08:29:38.328Z,7.9
2022-08-21T08:35:34.435Z,6.9
2022-08-21T08:42:32.475Z,6.6
2022-08-21T08:48:22.251Z,6.8
2022-08-21T08:54:16.688Z,5.4
2022-08-21T09:00:11.401Z,5.2
2022-08-21T09:06:03.107Z,4.9
2022-08-21T09:11:57.572Z,4.8
2022-08-21T09:17:48.545Z,4.5
2022-08-21T09:23:44.901Z,4.8
2022-08-21T09:36:30.137Z,3.6
2022-08-21T09:42:22.973Z,3.1
2022-08-21T09:48:25.726Z,3.5
2022-08-21T09:54:19.086Z,3.9
2022-08-21T10:00:13.557Z,4.2
2022-08-21T10:06:09.383Z,4.2
2022-08-21T10:12:01.987Z,4.2
2022-08-21T10:17:54.481Z,3.5
2022-08-21T10:24:10.992Z,2.7
2022-08-21T10:30:12.601Z,2.3
2022-08-21T10:36:15.552Z,3.5
2022-08-21T10:48:31.095Z,3.3
2022-08-21T10:54:32.626Z,3
2022-08-21T11:00:27.540Z,3.1
2022-08-21T11:06:45.773Z,2.3
2022-08-21T11:12:53.464Z,2.6
2022-08-21T11:19:02.280Z,2.8
2022-08-21T11:25:14.762Z,2.9
2022-08-21T11:31:04.947Z,2.9
2022-08-21T11:37:12.822Z,2.8
2022-08-21T11:43:29.574Z,2.3
2022-08-21T11:49:31.823Z,2.6
2022-08-21T11:55:30.692Z,2.3
2022-08-21T12:01:32.032Z,2
2022-08-21T12:13:57.508Z,2.2
2022-08-21T12:19:54.613Z,1.9
2022-08-21T12:25:51.645Z,2
2022-08-21T12:31:46.720Z,2.4
2022-08-21T12:38:01.281Z,2
2022-08-21T12:44:03.431Z,2.1
2022-08-21T12:49:58.076Z,2.1
2022-08-21T12:55:49.844Z,2.4
2022-08-21T13:02:07.594Z,2.2
2022-08-21T13:08:18.937Z,2.1
2022-08-21T13:14:23.733Z,2
2022-08-21T13:20:17.455Z,2.4
2022-08-21T13:26:13.397Z,2.8
2022-08-21T13:32:25.739Z,2.2
2022-08-21T13:38:33.422Z,2.4
2022-08-21T13:51:00.503Z,3.6
2022-08-21T13:57:08.516Z,2.2
2022-08-21T14:09:46.890Z,2.1
2022-08-21T14:15:41.245Z,14.1
2022-08-21T14:21:33.541Z,6.1
2022-08-21T14:27:30.405Z,17.2
2022-08-21T14:33:40.277Z,2.3
2022-08-21T14:39:52.619Z,2.1
2022-08-21T14:45:44.681Z,1.8
2022-08-21T14:51:53.983Z,2.3
2022-08-21T14:57:47.895Z,1.9
2022-08-21T15:03:41.283Z,2.6
2022-08-21T15:09:32.620Z,1.9
2022-08-21T15:15:26.681Z,2.1
2022-08-21T15:21:23.711Z,2.1
2022-08-21T15:27:26.805Z,2.1
2022-08-21T15:33:19.360Z,1.9
2022-08-21T15:39:10.623Z,2
2022-08-21T15:45:02.204Z,2.3
2022-08-21T15:50:53.550Z,2.5
2022-08-21T15:56:45.628Z,1.9
2022-08-21T16:02:36.788Z,2.2
2022-08-21T16:08:27.914Z,2
2022-08-21T16:14:20.011Z,2.6
2022-08-21T16:20:11.889Z,2.2
2022-08-21T16:26:09.958Z,2.3
2022-08-21T16:32:05.385Z,2.1
2022-08-21T16:38:00.905Z,2.3
2022-08-21T16:43:53.470Z,2.1
2022-08-21T16:49:47.139Z,2.4
2022-08-21T16:55:40.495Z,2
2022-08-21T17:01:32.686Z,1.7
2022-08-21T17:07:25.176Z,1.8
2022-08-21T17:13:17.811Z,2
2022-08-21T17:19:10.325Z,2.6
2022-08-21T17:25:01.548Z,2.1
2022-08-21T17:30:54.301Z,1.9
2022-08-21T17:36:48.463Z,1.8
2022-08-21T17:42:41.098Z,1.7
2022-08-21T17:48:34.224Z,1.8
2022-08-21T17:54:26.182Z,1.7
2022-08-21T18:00:18.746Z,1.9
2022-08-21T18:06:17.418Z,1.7
2022-08-21T18:12:10.720Z,1.6
2022-08-21T18:18:03.825Z,1.4
2022-08-21T18:23:54.206Z,1.6
2022-08-21T18:29:55.853Z,1.8
2022-08-21T18:35:49.023Z,2.3
2022-08-21T18:41:41.043Z,1.8
2022-08-21T18:47:31.948Z,1.8
2022-08-21T18:53:33.808Z,2
2022-08-21T18:59:30.614Z,1.8
2022-08-21T22:48:37.123Z,2
2022-08-21T22:54:31.133Z,2.2
2022-08-21T23:00:24.931Z,1.7
2022-08-21T23:06:19.522Z,1.9
2022-08-21T23:12:38.958Z,2.2
2022-08-21T23:18:33.101Z,2.1
2022-08-21T23:24:26.932Z,2.1
2022-08-21T23:30:22.114Z,2.3
2022-08-21T23:36:14.040Z,1.9
2022-08-21T23:42:07.821Z,2.3
2022-08-21T23:48:02.023Z,2.1
2022-08-21T23:53:57.195Z,2.6
2022-08-21T23:59:49.865Z,2.5
